Etusivu
METAR-TAF:

METAR-TAF

Lentoasemat :

Gibraltarin lentoasema

Gibraltar, Gibraltar

Leveyspiiri: 36-09N, Pituuspiiri: 005-21W, korkeus merenpinnasta: 5 m

Tämänhetkinen sää

Tämä raportti tehtiin 51 minuuttia sitten, kello 03.50 UTC
Tuuli 13 kn lännestä/lounaasta
Lämpötila 15°C
Kosteus 77%
Ilmanpaine 1016 hPa
Näkyvyys 10 km tai enemmän

METAR: LXGB 130350Z AUTO 25013KT 9999 // FEW023/// SCT046/// 15/11 Q1016

Aika: 05:41 (04:41 UTC)

Sääennuste

Tämä raportti tehtiin 12 tuntia ja 24 minuuttia sitten, kello 16.17 UTC
Ennuste voimassa 12. päivästä klo 18 UTC - 12. päivään klo 23 UTC
Tuuli 12 kn lännestä/lounaasta
Näkyvyys 10 km tai enemmän
ei pilviä alle 1500 m:ssä eikä cumulonimbus-pilviä

TAF: LXGB 121617Z 1218/1223 24012KT CAVOK

Säähavainnot ja -ennusteet yli 4000 lentoasemalta (METAR- ja TAF-raportit).

Käytössä olevat sääasemat on merkitty karttaan keltaisilla ja punaisilla pisteillä.

Aseta hiiri pisteen päälle nähdäksesi sääaseman nimen.

Klikkaa sitten nähdäksesi säähavainnot ja -ennusteet.

Kartan vaihtaminen: klikkaa mustalla rastilla varustettuja vihreitä pisteitä, niin voit zoomata sisään; viivalla varustettua vihreää pistettä, niin voit zoomata ulos tai vihreitä nuolia, niin pääset viereisille kartoille.


METAR-TAF: